sensor_id;sensor_type;location;lat;lon;timestamp;P1;durP1;ratioP1;P2;durP2;ratioP2
4001;SDS011;2015;48.670;9.060;2022-08-21T00:00:51;4.10;;;3.80;;
4001;SDS011;2015;48.670;9.060;2022-08-21T00:03:23;3.93;;;3.63;;
4001;SDS011;2015;48.670;9.060;2022-08-21T00:05:55;3.60;;;3.30;;
4001;SDS011;2015;48.670;9.060;2022-08-21T00:08:27;4.03;;;3.73;;
4001;SDS011;2015;48.670;9.060;2022-08-21T00:10:59;5.07;;;3.70;;
4001;SDS011;2015;48.670;9.060;2022-08-21T00:13:32;4.40;;;4.10;;
4001;SDS011;2015;48.670;9.060;2022-08-21T00:16:04;5.13;;;4.73;;
4001;SDS011;2015;48.670;9.060;2022-08-21T00:18:37;4.57;;;4.27;;
4001;SDS011;2015;48.670;9.060;2022-08-21T00:21:10;3.80;;;3.60;;
4001;SDS011;2015;48.670;9.060;2022-08-21T00:23:45;4.10;;;3.80;;
4001;SDS011;2015;48.670;9.060;2022-08-21T00:26:17;4.10;;;3.77;;
4001;SDS011;2015;48.670;9.060;2022-08-21T00:28:49;5.67;;;4.03;;
4001;SDS011;2015;48.670;9.060;2022-08-21T00:31:21;4.77;;;4.37;;
4001;SDS011;2015;48.670;9.060;2022-08-21T00:33:53;4.57;;;4.17;;
4001;SDS011;2015;48.670;9.060;2022-08-21T00:36:31;5.87;;;5.47;;
4001;SDS011;2015;48.670;9.060;2022-08-21T00:39:03;5.33;;;4.07;;
4001;SDS011;2015;48.670;9.060;2022-08-21T00:41:37;8.37;;;4.60;;
4001;SDS011;2015;48.670;9.060;2022-08-21T00:44:11;4.20;;;3.90;;
4001;SDS011;2015;48.670;9.060;2022-08-21T00:46:44;4.57;;;4.10;;
4001;SDS011;2015;48.670;9.060;2022-08-21T00:49:16;5.57;;;3.90;;
4001;SDS011;2015;48.670;9.060;2022-08-21T00:51:50;4.40;;;4.10;;
4001;SDS011;2015;48.670;9.060;2022-08-21T00:54:29;4.70;;;4.47;;
4001;SDS011;2015;48.670;9.060;2022-08-21T00:57:04;5.07;;;4.67;;
4001;SDS011;2015;48.670;9.060;2022-08-21T00:59:40;4.23;;;3.90;;
4001;SDS011;2015;48.670;9.060;2022-08-21T01:02:15;7.40;;;4.60;;
4001;SDS011;2015;48.670;9.060;2022-08-21T01:04:47;4.80;;;4.40;;
4001;SDS011;2015;48.670;9.060;2022-08-21T01:07:19;6.50;;;4.60;;
4001;SDS011;2015;48.670;9.060;2022-08-21T01:09:52;4.80;;;4.40;;
4001;SDS011;2015;48.670;9.060;2022-08-21T01:12:24;4.20;;;3.80;;
4001;SDS011;2015;48.670;9.060;2022-08-21T01:14:57;4.73;;;4.13;;
4001;SDS011;2015;48.670;9.060;2022-08-21T01:17:29;3.80;;;3.60;;
4001;SDS011;2015;48.670;9.060;2022-08-21T01:20:04;4.40;;;4.10;;
4001;SDS011;2015;48.670;9.060;2022-08-21T01:22:39;4.27;;;3.57;;
4001;SDS011;2015;48.670;9.060;2022-08-21T01:25:12;5.20;;;4.80;;
4001;SDS011;2015;48.670;9.060;2022-08-21T01:27:46;4.57;;;4.20;;
4001;SDS011;2015;48.670;9.060;2022-08-21T01:30:20;4.37;;;4.07;;
4001;SDS011;2015;48.670;9.060;2022-08-21T01:32:56;4.60;;;4.30;;
4001;SDS011;2015;48.670;9.060;2022-08-21T01:35:29;4.70;;;4.40;;
4001;SDS011;2015;48.670;9.060;2022-08-21T01:38:00;3.90;;;3.60;;
4001;SDS011;2015;48.670;9.060;2022-08-21T01:40:32;4.73;;;4.33;;
4001;SDS011;2015;48.670;9.060;2022-08-21T01:43:04;4.10;;;3.90;;
4001;SDS011;2015;48.670;9.060;2022-08-21T01:45:36;5.50;;;4.10;;
4001;SDS011;2015;48.670;9.060;2022-08-21T01:48:08;5.03;;;4.33;;
4001;SDS011;2015;48.670;9.060;2022-08-21T01:50:40;6.03;;;3.90;;
4001;SDS011;2015;48.670;9.060;2022-08-21T01:53:11;4.83;;;4.37;;
4001;SDS011;2015;48.670;9.060;2022-08-21T01:55:45;5.23;;;4.83;;
4001;SDS011;2015;48.670;9.060;2022-08-21T01:58:17;4.50;;;4.10;;
4001;SDS011;2015;48.670;9.060;2022-08-21T02:00:49;5.07;;;4.67;;
4001;SDS011;2015;48.670;9.060;2022-08-21T02:03:21;6.03;;;4.57;;
4001;SDS011;2015;48.670;9.060;2022-08-21T02:06:05;5.00;;;4.37;;
4001;SDS011;2015;48.670;9.060;2022-08-21T02:08:38;4.63;;;4.33;;
4001;SDS011;2015;48.670;9.060;2022-08-21T02:11:10;4.80;;;4.50;;
4001;SDS011;2015;48.670;9.060;2022-08-21T02:13:42;5.00;;;4.53;;
4001;SDS011;2015;48.670;9.060;2022-08-21T02:16:13;5.30;;;4.90;;
4001;SDS011;2015;48.670;9.060;2022-08-21T02:18:49;8.73;;;4.97;;
4001;SDS011;2015;48.670;9.060;2022-08-21T02:21:21;5.40;;;4.90;;
4001;SDS011;2015;48.670;9.060;2022-08-21T02:23:53;4.50;;;4.20;;
4001;SDS011;2015;48.670;9.060;2022-08-21T02:26:25;8.10;;;5.47;;
4001;SDS011;2015;48.670;9.060;2022-08-21T02:28:57;6.30;;;4.47;;
4001;SDS011;2015;48.670;9.060;2022-08-21T02:31:29;4.90;;;4.60;;
4001;SDS011;2015;48.670;9.060;2022-08-21T02:34:02;5.43;;;5.03;;
4001;SDS011;2015;48.670;9.060;2022-08-21T02:36:34;4.73;;;4.43;;
4001;SDS011;2015;48.670;9.060;2022-08-21T02:39:06;7.47;;;4.87;;
4001;SDS011;2015;48.670;9.060;2022-08-21T02:41:37;4.70;;;4.30;;
4001;SDS011;2015;48.670;9.060;2022-08-21T02:44:09;11.03;;;5.23;;
4001;SDS011;2015;48.670;9.060;2022-08-21T02:46:41;5.87;;;5.43;;
4001;SDS011;2015;48.670;9.060;2022-08-21T02:49:13;4.57;;;4.27;;
4001;SDS011;2015;48.670;9.060;2022-08-21T02:51:45;7.37;;;5.10;;
4001;SDS011;2015;48.670;9.060;2022-08-21T02:54:16;7.37;;;5.63;;
4001;SDS011;2015;48.670;9.060;2022-08-21T02:56:48;5.45;;;4.95;;
4001;SDS011;2015;48.670;9.060;2022-08-21T02:59:20;7.00;;;5.47;;
4001;SDS011;2015;48.670;9.060;2022-08-21T03:01:52;6.60;;;4.47;;
4001;SDS011;2015;48.670;9.060;2022-08-21T03:04:23;7.00;;;4.83;;
4001;SDS011;2015;48.670;9.060;2022-08-21T03:06:55;5.17;;;4.77;;
4001;SDS011;2015;48.670;9.060;2022-08-21T03:09:27;5.10;;;4.70;;
4001;SDS011;2015;48.670;9.060;2022-08-21T03:11:59;4.50;;;4.23;;
4001;SDS011;2015;48.670;9.060;2022-08-21T03:14:31;5.10;;;4.70;;
4001;SDS011;2015;48.670;9.060;2022-08-21T03:17:02;5.80;;;5.40;;
4001;SDS011;2015;48.670;9.060;2022-08-21T03:19:34;5.17;;;4.70;;
4001;SDS011;2015;48.670;9.060;2022-08-21T03:22:06;5.40;;;4.90;;
4001;SDS011;2015;48.670;9.060;2022-08-21T03:24:38;11.10;;;4.87;;
4001;SDS011;2015;48.670;9.060;2022-08-21T03:27:14;5.30;;;4.80;;
4001;SDS011;2015;48.670;9.060;2022-08-21T03:29:46;4.07;;;3.80;;
4001;SDS011;2015;48.670;9.060;2022-08-21T03:32:18;6.00;;;5.40;;
4001;SDS011;2015;48.670;9.060;2022-08-21T03:34:50;4.97;;;4.67;;
4001;SDS011;2015;48.670;9.060;2022-08-21T03:37:23;5.27;;;4.97;;
4001;SDS011;2015;48.670;9.060;2022-08-21T03:39:55;5.10;;;4.80;;
4001;SDS011;2015;48.670;9.060;2022-08-21T03:42:27;5.90;;;4.90;;
4001;SDS011;2015;48.670;9.060;2022-08-21T03:44:59;14.60;;;5.40;;
4001;SDS011;2015;48.670;9.060;2022-08-21T03:47:31;5.20;;;4.60;;
4001;SDS011;2015;48.670;9.060;2022-08-21T03:50:03;5.80;;;5.23;;
4001;SDS011;2015;48.670;9.060;2022-08-21T03:52:36;5.00;;;4.70;;
4001;SDS011;2015;48.670;9.060;2022-08-21T03:55:08;5.60;;;5.20;;
4001;SDS011;2015;48.670;9.060;2022-08-21T03:57:40;5.63;;;5.13;;
4001;SDS011;2015;48.670;9.060;2022-08-21T04:00:13;6.13;;;5.73;;
4001;SDS011;2015;48.670;9.060;2022-08-21T04:02:46;6.30;;;5.70;;
4001;SDS011;2015;48.670;9.060;2022-08-21T04:05:18;5.33;;;4.93;;
4001;SDS011;2015;48.670;9.060;2022-08-21T04:07:59;7.43;;;5.70;;
4001;SDS011;2015;48.670;9.060;2022-08-21T04:10:34;5.27;;;4.77;;
4001;SDS011;2015;48.670;9.060;2022-08-21T04:13:08;6.10;;;5.60;;
4001;SDS011;2015;48.670;9.060;2022-08-21T04:15:40;6.80;;;5.47;;
4001;SDS011;2015;48.670;9.060;2022-08-21T04:18:12;5.77;;;5.27;;
4001;SDS011;2015;48.670;9.060;2022-08-21T04:20:44;9.00;;;5.20;;
4001;SDS011;2015;48.670;9.060;2022-08-21T04:23:21;5.30;;;4.90;;
4001;SDS011;2015;48.670;9.060;2022-08-21T04:25:55;5.93;;;5.43;;
4001;SDS011;2015;48.670;9.060;2022-08-21T04:28:27;5.80;;;4.87;;
4001;SDS011;2015;48.670;9.060;2022-08-21T04:31:01;5.73;;;5.20;;
4001;SDS011;2015;48.670;9.060;2022-08-21T04:33:33;4.97;;;4.67;;
4001;SDS011;2015;48.670;9.060;2022-08-21T04:36:05;5.73;;;5.23;;
4001;SDS011;2015;48.670;9.060;2022-08-21T04:38:38;11.03;;;5.63;;
4001;SDS011;2015;48.670;9.060;2022-08-21T04:41:14;6.20;;;5.70;;
4001;SDS011;2015;48.670;9.060;2022-08-21T04:43:55;4.93;;;4.60;;
4001;SDS011;2015;48.670;9.060;2022-08-21T04:46:27;5.60;;;5.20;;
4001;SDS011;2015;48.670;9.060;2022-08-21T04:48:59;4.80;;;4.50;;
4001;SDS011;2015;48.670;9.060;2022-08-21T04:51:32;4.90;;;4.50;;
4001;SDS011;2015;48.670;9.060;2022-08-21T04:54:41;6.70;;;6.10;;
4001;SDS011;2015;48.670;9.060;2022-08-21T04:57:06;5.43;;;5.03;;
4001;SDS011;2015;48.670;9.060;2022-08-21T04:59:44;5.43;;;4.87;;
4001;SDS011;2015;48.670;9.060;2022-08-21T05:02:21;5.13;;;4.47;;
4001;SDS011;2015;48.670;9.060;2022-08-21T05:04:53;5.07;;;4.77;;
4001;SDS011;2015;48.670;9.060;2022-08-21T05:07:27;4.97;;;4.53;;
4001;SDS011;2015;48.670;9.060;2022-08-21T05:10:13;6.80;;;5.13;;
4001;SDS011;2015;48.670;9.060;2022-08-21T05:12:45;8.30;;;5.90;;
4001;SDS011;2015;48.670;9.060;2022-08-21T05:15:17;6.50;;;4.80;;
4001;SDS011;2015;48.670;9.060;2022-08-21T05:17:49;6.60;;;5.90;;
4001;SDS011;2015;48.670;9.060;2022-08-21T05:20:25;5.57;;;5.07;;
4001;SDS011;2015;48.670;9.060;2022-08-21T05:22:57;4.90;;;4.60;;
4001;SDS011;2015;48.670;9.060;2022-08-21T05:25:29;8.67;;;5.43;;
4001;SDS011;2015;48.670;9.060;2022-08-21T05:28:01;6.30;;;5.70;;
4001;SDS011;2015;48.670;9.060;2022-08-21T05:30:33;5.90;;;4.90;;
4001;SDS011;2015;48.670;9.060;2022-08-21T05:33:06;5.00;;;4.50;;
4001;SDS011;2015;48.670;9.060;2022-08-21T05:35:38;6.43;;;5.83;;
4001;SDS011;2015;48.670;9.060;2022-08-21T05:38:10;5.53;;;5.10;;
4001;SDS011;2015;48.670;9.060;2022-08-21T05:40:47;6.90;;;5.10;;
4001;SDS011;2015;48.670;9.060;2022-08-21T05:43:19;5.63;;;5.17;;
4001;SDS011;2015;48.670;9.060;2022-08-21T05:45:51;6.20;;;5.20;;
4001;SDS011;2015;48.670;9.060;2022-08-21T05:48:24;7.50;;;6.80;;
4001;SDS011;2015;48.670;9.060;2022-08-21T05:50:55;6.53;;;5.90;;
4001;SDS011;2015;48.670;9.060;2022-08-21T05:53:27;5.60;;;5.30;;
4001;SDS011;2015;48.670;9.060;2022-08-21T05:55:59;6.67;;;6.10;;
4001;SDS011;2015;48.670;9.060;2022-08-21T05:58:34;6.10;;;5.60;;
4001;SDS011;2015;48.670;9.060;2022-08-21T06:01:06;6.53;;;6.03;;
4001;SDS011;2015;48.670;9.060;2022-08-21T06:03:40;6.17;;;5.80;;
4001;SDS011;2015;48.670;9.060;2022-08-21T06:06:12;6.90;;;6.30;;
4001;SDS011;2015;48.670;9.060;2022-08-21T06:08:43;6.70;;;6.13;;
4001;SDS011;2015;48.670;9.060;2022-08-21T06:11:15;7.97;;;7.23;;
4001;SDS011;2015;48.670;9.060;2022-08-21T06:13:47;7.33;;;6.83;;
4001;SDS011;2015;48.670;9.060;2022-08-21T06:16:19;6.60;;;6.00;;
4001;SDS011;2015;48.670;9.060;2022-08-21T06:18:51;7.23;;;6.57;;
4001;SDS011;2015;48.670;9.060;2022-08-21T06:21:23;6.67;;;6.17;;
4001;SDS011;2015;48.670;9.060;2022-08-21T06:23:55;6.03;;;5.63;;
4001;SDS011;2015;48.670;9.060;2022-08-21T06:26:27;6.13;;;5.73;;
4001;SDS011;2015;48.670;9.060;2022-08-21T06:29:00;5.63;;;5.17;;
4001;SDS011;2015;48.670;9.060;2022-08-21T06:31:32;6.73;;;5.00;;
4001;SDS011;2015;48.670;9.060;2022-08-21T06:34:04;5.07;;;4.70;;
4001;SDS011;2015;48.670;9.060;2022-08-21T06:36:36;5.40;;;5.03;;
4001;SDS011;2015;48.670;9.060;2022-08-21T06:39:08;5.43;;;4.70;;
4001;SDS011;2015;48.670;9.060;2022-08-21T06:41:55;5.50;;;4.90;;
4001;SDS011;2015;48.670;9.060;2022-08-21T06:44:28;5.83;;;5.40;;
4001;SDS011;2015;48.670;9.060;2022-08-21T06:47:01;4.90;;;4.40;;
4001;SDS011;2015;48.670;9.060;2022-08-21T06:49:33;7.13;;;5.10;;
4001;SDS011;2015;48.670;9.060;2022-08-21T06:52:09;6.10;;;5.57;;
4001;SDS011;2015;48.670;9.060;2022-08-21T06:54:42;6.30;;;5.07;;
4001;SDS011;2015;48.670;9.060;2022-08-21T06:57:14;5.73;;;5.10;;
4001;SDS011;2015;48.670;9.060;2022-08-21T06:59:45;5.70;;;5.30;;
4001;SDS011;2015;48.670;9.060;2022-08-21T07:02:17;5.60;;;5.10;;
4001;SDS011;2015;48.670;9.060;2022-08-21T07:04:49;5.70;;;5.30;;
4001;SDS011;2015;48.670;9.060;2022-08-21T07:07:21;6.60;;;5.13;;
4001;SDS011;2015;48.670;9.060;2022-08-21T07:09:53;6.23;;;5.53;;
4001;SDS011;2015;48.670;9.060;2022-08-21T07:12:25;6.37;;;5.83;;
4001;SDS011;2015;48.670;9.060;2022-08-21T07:14:57;9.90;;;6.00;;
4001;SDS011;2015;48.670;9.060;2022-08-21T07:17:29;5.60;;;5.10;;
4001;SDS011;2015;48.670;9.060;2022-08-21T07:20:01;5.63;;;5.23;;
4001;SDS011;2015;48.670;9.060;2022-08-21T07:22:35;6.50;;;6.00;;
4001;SDS011;2015;48.670;9.060;2022-08-21T07:25:08;5.60;;;4.80;;
4001;SDS011;2015;48.670;9.060;2022-08-21T07:27:40;6.63;;;5.60;;
4001;SDS011;2015;48.670;9.060;2022-08-21T07:30:12;7.97;;;5.33;;
4001;SDS011;2015;48.670;9.060;2022-08-21T07:32:44;5.50;;;5.10;;
4001;SDS011;2015;48.670;9.060;2022-08-21T07:35:17;6.73;;;5.40;;
4001;SDS011;2015;48.670;9.060;2022-08-21T07:37:50;6.68;;;5.60;;
4001;SDS011;2015;48.670;9.060;2022-08-21T07:40:22;6.87;;;6.27;;
4001;SDS011;2015;48.670;9.060;2022-08-21T07:42:54;6.03;;;5.47;;
4001;SDS011;2015;48.670;9.060;2022-08-21T07:45:26;5.80;;;4.70;;
4001;SDS011;2015;48.670;9.060;2022-08-21T07:47:58;9.97;;;5.97;;
4001;SDS011;2015;48.670;9.060;2022-08-21T07:50:29;7.87;;;5.30;;
4001;SDS011;2015;48.670;9.060;2022-08-21T07:53:02;5.60;;;5.10;;
4001;SDS011;2015;48.670;9.060;2022-08-21T07:55:34;6.10;;;4.87;;
4001;SDS011;2015;48.670;9.060;2022-08-21T07:58:05;9.80;;;6.30;;
4001;SDS011;2015;48.670;9.060;2022-08-21T08:00:38;5.30;;;4.70;;
4001;SDS011;2015;48.670;9.060;2022-08-21T08:03:11;6.47;;;5.93;;
4001;SDS011;2015;48.670;9.060;2022-08-21T08:05:42;8.20;;;6.20;;
4001;SDS011;2015;48.670;9.060;2022-08-21T08:08:14;6.67;;;6.07;;
4001;SDS011;2015;48.670;9.060;2022-08-21T08:10:46;5.53;;;5.23;;
4001;SDS011;2015;48.670;9.060;2022-08-21T08:13:20;6.27;;;5.67;;
4001;SDS011;2015;48.670;9.060;2022-08-21T08:15:52;6.50;;;5.47;;
4001;SDS011;2015;48.670;9.060;2022-08-21T08:18:23;6.07;;;5.57;;
4001;SDS011;2015;48.670;9.060;2022-08-21T08:20:55;6.27;;;4.80;;
4001;SDS011;2015;48.670;9.060;2022-08-21T08:23:27;5.63;;;5.23;;
4001;SDS011;2015;48.670;9.060;2022-08-21T08:25:59;5.27;;;4.83;;
4001;SDS011;2015;48.670;9.060;2022-08-21T08:28:33;5.27;;;4.97;;
4001;SDS011;2015;48.670;9.060;2022-08-21T08:31:05;10.57;;;5.90;;
4001;SDS011;2015;48.670;9.060;2022-08-21T08:33:37;5.90;;;4.73;;
4001;SDS011;2015;48.670;9.060;2022-08-21T08:36:13;5.33;;;4.83;;
4001;SDS011;2015;48.670;9.060;2022-08-21T08:38:47;5.90;;;5.23;;
4001;SDS011;2015;48.670;9.060;2022-08-21T08:41:19;7.00;;;4.93;;
4001;SDS011;2015;48.670;9.060;2022-08-21T08:44:02;6.33;;;5.83;;
4001;SDS011;2015;48.670;9.060;2022-08-21T08:46:46;5.73;;;5.23;;
4001;SDS011;2015;48.670;9.060;2022-08-21T08:49:29;5.03;;;4.70;;
4001;SDS011;2015;48.670;9.060;2022-08-21T08:52:20;5.40;;;5.00;;
4001;SDS011;2015;48.670;9.060;2022-08-21T08:55:06;5.13;;;4.60;;
4001;SDS011;2015;48.670;9.060;2022-08-21T08:58:01;5.90;;;5.40;;
4001;SDS011;2015;48.670;9.060;2022-08-21T09:00:34;5.63;;;5.23;;
4001;SDS011;2015;48.670;9.060;2022-08-21T09:03:05;5.73;;;4.80;;
4001;SDS011;2015;48.670;9.060;2022-08-21T09:05:43;4.77;;;4.30;;
4001;SDS011;2015;48.670;9.060;2022-08-21T09:11:00;6.63;;;6.10;;
4001;SDS011;2015;48.670;9.060;2022-08-21T09:25:10;6.05;;;5.57;;
4001;SDS011;2015;48.670;9.060;2022-08-21T09:27:54;5.30;;;4.38;;
4001;SDS011;2015;48.670;9.060;2022-08-21T09:30:28;5.80;;;4.72;;
4001;SDS011;2015;48.670;9.060;2022-08-21T09:33:03;4.78;;;4.28;;
4001;SDS011;2015;48.670;9.060;2022-08-21T09:35:35;6.63;;;4.88;;
4001;SDS011;2015;48.670;9.060;2022-08-21T09:38:08;5.03;;;4.60;;
4001;SDS011;2015;48.670;9.060;2022-08-21T09:40:42;3.72;;;3.53;;
4001;SDS011;2015;48.670;9.060;2022-08-21T09:43:20;8.23;;;4.22;;
4001;SDS011;2015;48.670;9.060;2022-08-21T09:46:05;5.88;;;4.10;;
4001;SDS011;2015;48.670;9.060;2022-08-21T09:48:43;4.18;;;3.78;;
4001;SDS011;2015;48.670;9.060;2022-08-21T09:51:22;6.30;;;3.70;;
4001;SDS011;2015;48.670;9.060;2022-08-21T09:56:39;5.22;;;4.03;;
4001;SDS011;2015;48.670;9.060;2022-08-21T09:59:42;6.35;;;4.03;;
4001;SDS011;2015;48.670;9.060;2022-08-21T10:05:03;4.13;;;3.85;;
4001;SDS011;2015;48.670;9.060;2022-08-21T10:07:46;4.78;;;4.38;;
4001;SDS011;2015;48.670;9.060;2022-08-21T10:10:22;4.57;;;4.22;;
4001;SDS011;2015;48.670;9.060;2022-08-21T10:12:59;4.88;;;4.50;;
4001;SDS011;2015;48.670;9.060;2022-08-21T10:22:04;5.00;;;4.70;;
4001;SDS011;2015;48.670;9.060;2022-08-21T10:30:39;4.28;;;3.88;;
4001;SDS011;2015;48.670;9.060;2022-08-21T10:36:16;4.57;;;4.25;;
4001;SDS011;2015;48.670;9.060;2022-08-21T10:39:15;4.28;;;3.88;;
4001;SDS011;2015;48.670;9.060;2022-08-21T11:01:48;5.03;;;4.18;;
4001;SDS011;2015;48.670;9.060;2022-08-21T11:04:56;5.05;;;4.03;;
4001;SDS011;2015;48.670;9.060;2022-08-21T11:07:45;6.68;;;4.18;;
4001;SDS011;2015;48.670;9.060;2022-08-21T11:13:03;4.07;;;3.78;;
4001;SDS011;2015;48.670;9.060;2022-08-21T11:15:44;5.28;;;3.88;;
4001;SDS011;2015;48.670;9.060;2022-08-21T11:18:31;3.50;;;3.30;;
4001;SDS011;2015;48.670;9.060;2022-08-21T11:27:49;3.72;;;3.42;;
4001;SDS011;2015;48.670;9.060;2022-08-21T11:30:03;4.43;;;4.13;;
4001;SDS011;2015;48.670;9.060;2022-08-21T11:38:28;4.50;;;4.10;;
4001;SDS011;2015;48.670;9.060;2022-08-21T11:44:18;4.70;;;4.13;;
4001;SDS011;2015;48.670;9.060;2022-08-21T11:50:18;4.53;;;4.15;;
4001;SDS011;2015;48.670;9.060;2022-08-21T11:55:46;4.50;;;4.20;;
4001;SDS011;2015;48.670;9.060;2022-08-21T12:02:00;3.80;;;3.58;;
4001;SDS011;2015;48.670;9.060;2022-08-21T12:04:08;4.05;;;3.85;;
4001;SDS011;2015;48.670;9.060;2022-08-21T12:06:49;4.37;;;4.07;;
4001;SDS011;2015;48.670;9.060;2022-08-21T12:14:46;6.97;;;4.80;;
4001;SDS011;2015;48.670;9.060;2022-08-21T12:17:23;4.33;;;4.03;;
4001;SDS011;2015;48.670;9.060;2022-08-21T12:20:16;4.23;;;3.93;;
4001;SDS011;2015;48.670;9.060;2022-08-21T12:22:54;4.10;;;3.90;;
4001;SDS011;2015;48.670;9.060;2022-08-21T12:25:37;4.13;;;3.80;;
4001;SDS011;2015;48.670;9.060;2022-08-21T12:28:14;4.50;;;4.10;;
4001;SDS011;2015;48.670;9.060;2022-08-21T12:30:53;4.00;;;3.80;;
4001;SDS011;2015;48.670;9.060;2022-08-21T12:33:29;5.33;;;4.80;;
4001;SDS011;2015;48.670;9.060;2022-08-21T12:36:13;4.47;;;4.17;;
4001;SDS011;2015;48.670;9.060;2022-08-21T12:38:59;5.00;;;4.00;;
4001;SDS011;2015;48.670;9.060;2022-08-21T12:44:21;4.63;;;4.23;;
4001;SDS011;2015;48.670;9.060;2022-08-21T12:47:03;7.93;;;4.60;;
4001;SDS011;2015;48.670;9.060;2022-08-21T12:52:54;6.23;;;4.30;;
4001;SDS011;2015;48.670;9.060;2022-08-21T12:55:32;6.03;;;4.13;;
4001;SDS011;2015;48.670;9.060;2022-08-21T12:58:05;5.93;;;4.57;;
4001;SDS011;2015;48.670;9.060;2022-08-21T13:00:36;4.80;;;4.40;;
4001;SDS011;2015;48.670;9.060;2022-08-21T13:03:08;4.67;;;4.27;;
4001;SDS011;2015;48.670;9.060;2022-08-21T13:05:40;4.40;;;4.10;;
4001;SDS011;2015;48.670;9.060;2022-08-21T13:08:12;5.07;;;4.25;;
4001;SDS011;2015;48.670;9.060;2022-08-21T13:10:45;4.37;;;4.07;;
4001;SDS011;2015;48.670;9.060;2022-08-21T13:13:21;4.20;;;3.90;;
4001;SDS011;2015;48.670;9.060;2022-08-21T13:15:59;4.50;;;4.20;;
4001;SDS011;2015;48.670;9.060;2022-08-21T13:21:34;8.30;;;4.67;;
4001;SDS011;2015;48.670;9.060;2022-08-21T13:24:24;5.33;;;4.90;;
4001;SDS011;2015;48.670;9.060;2022-08-21T13:27:27;4.93;;;4.53;;
4001;SDS011;2015;48.670;9.060;2022-08-21T13:32:44;4.00;;;3.70;;
4001;SDS011;2015;48.670;9.060;2022-08-21T13:35:22;4.00;;;3.73;;
4001;SDS011;2015;48.670;9.060;2022-08-21T13:37:58;4.43;;;4.10;;
4001;SDS011;2015;48.670;9.060;2022-08-21T13:40:32;4.57;;;4.27;;
4001;SDS011;2015;48.670;9.060;2022-08-21T13:43:13;7.57;;;5.80;;
4001;SDS011;2015;48.670;9.060;2022-08-21T13:45:52;4.40;;;3.90;;
4001;SDS011;2015;48.670;9.060;2022-08-21T13:48:25;5.17;;;4.33;;
4001;SDS011;2015;48.670;9.060;2022-08-21T13:51:04;7.50;;;6.80;;
4001;SDS011;2015;48.670;9.060;2022-08-21T13:53:44;5.10;;;4.70;;
4001;SDS011;2015;48.670;9.060;2022-08-21T13:58:54;4.60;;;4.20;;
4001;SDS011;2015;48.670;9.060;2022-08-21T14:01:28;4.70;;;4.30;;
4001;SDS011;2015;48.670;9.060;2022-08-21T14:04:05;5.67;;;5.13;;
4001;SDS011;2015;48.670;9.060;2022-08-21T14:06:47;5.78;;;4.80;;
4001;SDS011;2015;48.670;9.060;2022-08-21T14:09:34;4.80;;;4.40;;
4001;SDS011;2015;48.670;9.060;2022-08-21T14:12:14;4.73;;;4.33;;
4001;SDS011;2015;48.670;9.060;2022-08-21T14:14:54;4.67;;;4.20;;
4001;SDS011;2015;48.670;9.060;2022-08-21T14:17:29;6.90;;;4.60;;
4001;SDS011;2015;48.670;9.060;2022-08-21T14:20:08;5.07;;;4.67;;
4001;SDS011;2015;48.670;9.060;2022-08-21T14:22:46;8.73;;;5.73;;
4001;SDS011;2015;48.670;9.060;2022-08-21T14:28:33;5.13;;;4.73;;
4001;SDS011;2015;48.670;9.060;2022-08-21T14:30:58;4.83;;;4.43;;
4001;SDS011;2015;48.670;9.060;2022-08-21T14:33:47;5.80;;;4.93;;
4001;SDS011;2015;48.670;9.060;2022-08-21T14:36:19;12.00;;;4.53;;
4001;SDS011;2015;48.670;9.060;2022-08-21T14:38:51;5.40;;;5.00;;
4001;SDS011;2015;48.670;9.060;2022-08-21T14:41:24;5.20;;;4.73;;
4001;SDS011;2015;48.670;9.060;2022-08-21T14:43:58;4.63;;;4.10;;
4001;SDS011;2015;48.670;9.060;2022-08-21T14:46:39;5.47;;;4.97;;
4001;SDS011;2015;48.670;9.060;2022-08-21T14:49:28;4.77;;;4.50;;
4001;SDS011;2015;48.670;9.060;2022-08-21T14:52:00;5.43;;;4.97;;
4001;SDS011;2015;48.670;9.060;2022-08-21T14:54:32;5.80;;;4.70;;
4001;SDS011;2015;48.670;9.060;2022-08-21T14:57:06;4.93;;;4.60;;
4001;SDS011;2015;48.670;9.060;2022-08-21T14:59:41;5.05;;;4.53;;
4001;SDS011;2015;48.670;9.060;2022-08-21T15:02:14;7.33;;;5.10;;
4001;SDS011;2015;48.670;9.060;2022-08-21T15:04:45;6.73;;;4.50;;
4001;SDS011;2015;48.670;9.060;2022-08-21T15:07:17;5.60;;;5.20;;
4001;SDS011;2015;48.670;9.060;2022-08-21T15:09:49;7.53;;;5.83;;
4001;SDS011;2015;48.670;9.060;2022-08-21T15:12:21;6.23;;;5.00;;
4001;SDS011;2015;48.670;9.060;2022-08-21T15:14:53;5.60;;;5.10;;
4001;SDS011;2015;48.670;9.060;2022-08-21T15:17:25;5.70;;;5.20;;
4001;SDS011;2015;48.670;9.060;2022-08-21T15:19:57;5.10;;;4.77;;
4001;SDS011;2015;48.670;9.060;2022-08-21T15:22:31;4.83;;;4.40;;
4001;SDS011;2015;48.670;9.060;2022-08-21T15:25:03;6.97;;;5.38;;
4001;SDS011;2015;48.670;9.060;2022-08-21T15:27:35;7.03;;;5.13;;
4001;SDS011;2015;48.670;9.060;2022-08-21T15:30:07;6.67;;;5.67;;
4001;SDS011;2015;48.670;9.060;2022-08-21T15:32:40;5.50;;;4.67;;
4001;SDS011;2015;48.670;9.060;2022-08-21T15:35:12;5.53;;;5.03;;
4001;SDS011;2015;48.670;9.060;2022-08-21T15:37:45;5.70;;;5.30;;
4001;SDS011;2015;48.670;9.060;2022-08-21T15:40:16;5.50;;;5.00;;
4001;SDS011;2015;48.670;9.060;2022-08-21T15:42:49;5.37;;;5.00;;
4001;SDS011;2015;48.670;9.060;2022-08-21T15:45:24;4.93;;;4.63;;
4001;SDS011;2015;48.670;9.060;2022-08-21T15:47:56;5.87;;;5.37;;
4001;SDS011;2015;48.670;9.060;2022-08-21T15:50:29;5.40;;;4.90;;
4001;SDS011;2015;48.670;9.060;2022-08-21T15:53:02;6.20;;;5.23;;
4001;SDS011;2015;48.670;9.060;2022-08-21T15:55:34;5.57;;;5.00;;
4001;SDS011;2015;48.670;9.060;2022-08-21T15:58:06;5.13;;;4.77;;
4001;SDS011;2015;48.670;9.060;2022-08-21T16:00:43;5.30;;;4.80;;
4001;SDS011;2015;48.670;9.060;2022-08-21T16:03:16;5.47;;;5.17;;
4001;SDS011;2015;48.670;9.060;2022-08-21T16:05:52;5.33;;;4.77;;
4001;SDS011;2015;48.670;9.060;2022-08-21T16:08:26;5.67;;;5.17;;
4001;SDS011;2015;48.670;9.060;2022-08-21T16:10:58;5.17;;;4.80;;
4001;SDS011;2015;48.670;9.060;2022-08-21T16:13:36;5.30;;;4.90;;
4001;SDS011;2015;48.670;9.060;2022-08-21T16:16:17;5.47;;;5.07;;
4001;SDS011;2015;48.670;9.060;2022-08-21T16:18:52;6.20;;;5.70;;
4001;SDS011;2015;48.670;9.060;2022-08-21T16:21:25;5.80;;;5.27;;
4001;SDS011;2015;48.670;9.060;2022-08-21T16:23:56;7.33;;;5.23;;
4001;SDS011;2015;48.670;9.060;2022-08-21T16:26:28;5.10;;;4.80;;
4001;SDS011;2015;48.670;9.060;2022-08-21T16:29:04;6.60;;;5.20;;
4001;SDS011;2015;48.670;9.060;2022-08-21T16:31:37;5.37;;;4.87;;
4001;SDS011;2015;48.670;9.060;2022-08-21T16:34:10;5.37;;;4.87;;
4001;SDS011;2015;48.670;9.060;2022-08-21T16:36:47;5.60;;;5.00;;
4001;SDS011;2015;48.670;9.060;2022-08-21T16:39:18;5.33;;;4.80;;
4001;SDS011;2015;48.670;9.060;2022-08-21T16:41:50;5.20;;;4.90;;
4001;SDS011;2015;48.670;9.060;2022-08-21T16:44:22;5.03;;;4.63;;
4001;SDS011;2015;48.670;9.060;2022-08-21T16:46:55;5.50;;;5.00;;
4001;SDS011;2015;48.670;9.060;2022-08-21T16:49:27;5.50;;;5.00;;
4001;SDS011;2015;48.670;9.060;2022-08-21T16:51:58;4.80;;;4.40;;
4001;SDS011;2015;48.670;9.060;2022-08-21T16:54:31;5.53;;;5.03;;
4001;SDS011;2015;48.670;9.060;2022-08-21T16:57:03;10.67;;;4.87;;
4001;SDS011;2015;48.670;9.060;2022-08-21T16:59:35;6.37;;;5.87;;
4001;SDS011;2015;48.670;9.060;2022-08-21T17:02:20;7.23;;;5.10;;
4001;SDS011;2015;48.670;9.060;2022-08-21T17:04:57;6.67;;;5.17;;
4001;SDS011;2015;48.670;9.060;2022-08-21T17:07:30;4.80;;;4.50;;
4001;SDS011;2015;48.670;9.060;2022-08-21T17:10:07;4.87;;;4.47;;
4001;SDS011;2015;48.670;9.060;2022-08-21T17:12:40;5.73;;;5.27;;
4001;SDS011;2015;48.670;9.060;2022-08-21T17:15:16;5.40;;;4.90;;
4001;SDS011;2015;48.670;9.060;2022-08-21T17:17:52;5.13;;;4.73;;
4001;SDS011;2015;48.670;9.060;2022-08-21T17:20:26;9.40;;;5.90;;
4001;SDS011;2015;48.670;9.060;2022-08-21T17:22:58;5.30;;;4.90;;
4001;SDS011;2015;48.670;9.060;2022-08-21T17:25:30;5.43;;;4.90;;
4001;SDS011;2015;48.670;9.060;2022-08-21T17:28:03;5.40;;;4.90;;
4001;SDS011;2015;48.670;9.060;2022-08-21T17:30:34;6.27;;;5.77;;
4001;SDS011;2015;48.670;9.060;2022-08-21T17:33:08;6.03;;;5.53;;
4001;SDS011;2015;48.670;9.060;2022-08-21T17:35:40;7.00;;;5.00;;
4001;SDS011;2015;48.670;9.060;2022-08-21T17:38:13;5.30;;;4.90;;
4001;SDS011;2015;48.670;9.060;2022-08-21T17:40:46;5.30;;;4.90;;
4001;SDS011;2015;48.670;9.060;2022-08-21T17:43:19;8.60;;;7.80;;
4001;SDS011;2015;48.670;9.060;2022-08-21T17:45:51;11.70;;;10.90;;